createdAt,value
2019-05-02T00:00:36.282Z,8.87
2019-05-02T00:03:05.811Z,9.70
2019-05-02T00:05:34.579Z,8.63
2019-05-02T00:08:03.139Z,10.17
2019-05-02T00:10:31.431Z,16.90
2019-05-02T00:12:59.729Z,30.20
2019-05-02T00:15:28.309Z,31.13
2019-05-02T00:17:56.892Z,30.33
2019-05-02T00:20:27.154Z,29.90
2019-05-02T00:22:55.578Z,29.23
2019-05-02T00:25:24.202Z,28.53
2019-05-02T00:27:52.527Z,29.43
2019-05-02T00:30:21.009Z,28.80
2019-05-02T00:32:53.165Z,28.27
2019-05-02T00:35:19.354Z,27.10
2019-05-02T00:37:47.738Z,27.80
2019-05-02T00:40:20.256Z,26.23
2019-05-02T00:42:46.013Z,25.60
2019-05-02T00:45:18.649Z,25.13
2019-05-02T00:47:49.851Z,24.17
2019-05-02T00:50:19.022Z,23.40
2019-05-02T00:52:47.310Z,21.87
2019-05-02T00:55:15.613Z,22.47
2019-05-02T00:57:43.999Z,23.37
2019-05-02T01:00:13.397Z,20.53
2019-05-02T01:02:47.063Z,20.57
2019-05-02T01:05:15.647Z,21.03
2019-05-02T01:07:43.925Z,20.17
2019-05-02T01:10:12.609Z,20.13
2019-05-02T01:12:44.507Z,19.23
2019-05-02T01:15:11.278Z,19.30
2019-05-02T01:17:39.638Z,18.83
2019-05-02T01:20:07.935Z,17.00
2019-05-02T01:22:36.555Z,17.00
2019-05-02T01:25:14.944Z,17.37
2019-05-02T01:27:42.605Z,17.60
2019-05-02T01:30:29.747Z,17.10
2019-05-02T01:33:06.400Z,17.43
2019-05-02T01:35:34.043Z,16.83
2019-05-02T01:38:19.235Z,16.90
2019-05-02T01:40:53.223Z,15.80
2019-05-02T01:43:30.114Z,15.80
2019-05-02T01:45:58.721Z,14.87
2019-05-02T01:48:27.010Z,16.57
2019-05-02T01:50:55.307Z,14.10
2019-05-02T01:53:23.822Z,15.37
2019-05-02T01:55:57.709Z,15.00
2019-05-02T01:58:22.894Z,14.13
2019-05-02T02:00:51.437Z,13.87
2019-05-02T02:03:20.047Z,13.27
2019-05-02T02:05:48.331Z,14.13
2019-05-02T02:08:16.634Z,13.50
2019-05-02T02:10:45.283Z,12.83
2019-05-02T02:13:13.579Z,12.50
2019-05-02T02:15:42.138Z,12.37
2019-05-02T02:18:11.348Z,12.47
2019-05-02T02:20:53.547Z,12.20
2019-05-02T02:23:35.743Z,11.63
2019-05-02T02:26:06.933Z,12.43
2019-05-02T02:28:35.982Z,12.57
2019-05-02T02:31:07.495Z,11.67
2019-05-02T02:33:34.325Z,11.50
2019-05-02T02:36:02.963Z,11.57
2019-05-02T02:38:33.501Z,11.53
2019-05-02T02:41:06.368Z,11.60
2019-05-02T02:43:34.663Z,11.27
2019-05-02T02:46:04.211Z,11.90
2019-05-02T02:48:40.010Z,10.50
2019-05-02T02:51:03.791Z,10.77
2019-05-02T02:53:32.074Z,10.80
2019-05-02T02:56:03.954Z,10.33
2019-05-02T02:58:44.111Z,10.37
2019-05-02T03:01:02.125Z,10.10
2019-05-02T03:03:34.761Z,10.20
2019-05-02T03:06:05.667Z,8.93
2019-05-02T03:08:30.438Z,9.47
2019-05-02T03:10:58.815Z,9.20
2019-05-02T03:13:29.047Z,9.60
2019-05-02T03:16:07.039Z,8.73
2019-05-02T03:18:39.990Z,8.73
2019-05-02T03:21:02.359Z,8.70
2019-05-02T03:23:30.815Z,8.97
2019-05-02T03:25:59.258Z,8.43
2019-05-02T03:28:27.560Z,8.27
2019-05-02T03:30:56.470Z,8.33
2019-05-02T03:33:24.745Z,7.93
2019-05-02T03:35:57.279Z,8.30
2019-05-02T03:38:32.533Z,7.97
2019-05-02T03:40:55.944Z,8.27
2019-05-02T03:43:25.873Z,7.30
2019-05-02T03:45:54.779Z,7.60
2019-05-02T03:48:25.719Z,7.10
2019-05-02T03:50:53.479Z,7.33
2019-05-02T03:53:25.066Z,7.87
2019-05-02T03:55:51.828Z,7.13
2019-05-02T03:58:20.223Z,6.93
2019-05-02T04:00:54.965Z,6.90
2019-05-02T04:03:19.336Z,7.17
2019-05-02T04:05:48.231Z,7.47
2019-05-02T04:08:20.747Z,7.10
2019-05-02T04:10:52.796Z,7.50
2019-05-02T04:13:20.642Z,7.70
2019-05-02T04:15:48.938Z,7.10
2019-05-02T04:18:17.929Z,7.13
2019-05-02T04:20:49.621Z,7.93
2019-05-02T04:23:21.129Z,10.00
2019-05-02T04:25:46.430Z,10.67
2019-05-02T04:28:15.219Z,11.10
2019-05-02T04:30:45.223Z,10.43
2019-05-02T04:33:13.580Z,11.07
2019-05-02T04:35:41.883Z,11.10
2019-05-02T04:38:20.392Z,17.00
2019-05-02T04:40:44.874Z,18.73
2019-05-02T04:43:11.604Z,25.47
2019-05-02T04:45:53.109Z,18.87
2019-05-02T04:48:10.145Z,20.53
2019-05-02T04:50:38.456Z,21.50
2019-05-02T04:53:08.611Z,20.50
2019-05-02T04:55:38.049Z,19.07
2019-05-02T04:58:08.300Z,19.50
2019-05-02T05:00:39.244Z,20.50
2019-05-02T05:03:15.284Z,19.27
2019-05-02T05:05:37.709Z,18.70
2019-05-02T05:08:07.869Z,19.03
2019-05-02T05:10:41.394Z,21.80
2019-05-02T05:13:07.770Z,29.67
2019-05-02T05:15:44.537Z,30.87
2019-05-02T05:18:10.465Z,41.93
2019-05-02T05:20:38.504Z,35.67
2019-05-02T05:23:08.176Z,33.30
2019-05-02T05:25:40.905Z,33.07
2019-05-02T05:28:09.291Z,32.43
2019-05-02T05:30:45.167Z,31.93
2019-05-02T05:33:10.360Z,32.00
2019-05-02T05:35:38.555Z,30.13
2019-05-02T05:38:07.819Z,30.17
2019-05-02T05:40:37.603Z,33.30
2019-05-02T05:43:12.111Z,36.27
2019-05-02T05:45:48.716Z,39.60
2019-05-02T05:48:27.406Z,38.70
2019-05-02T05:50:57.941Z,37.53
2019-05-02T05:53:28.095Z,37.37
2019-05-02T05:55:58.918Z,37.60
2019-05-02T05:58:28.402Z,36.60
2019-05-02T06:00:58.404Z,35.97
2019-05-02T06:03:27.829Z,37.33
2019-05-02T06:05:57.992Z,36.17
2019-05-02T06:08:26.526Z,35.40
2019-05-02T06:10:54.815Z,35.70
2019-05-02T06:13:23.363Z,34.83
2019-05-02T06:16:02.024Z,35.20
2019-05-02T06:18:21.792Z,34.33
2019-05-02T06:20:50.463Z,35.20
2019-05-02T06:23:19.339Z,34.20
2019-05-02T06:25:47.733Z,32.97
2019-05-02T06:28:16.007Z,33.10
2019-05-02T06:30:44.479Z,34.40
2019-05-02T06:33:13.070Z,32.50
2019-05-02T06:35:41.358Z,33.50
2019-05-02T06:38:09.829Z,34.50
2019-05-02T06:40:39.443Z,33.77
2019-05-02T06:43:09.702Z,31.90
2019-05-02T06:45:39.652Z,32.23
2019-05-02T06:48:08.446Z,31.20
2019-05-02T06:50:38.990Z,32.10
2019-05-02T06:53:09.503Z,30.43
2019-05-02T06:55:38.781Z,30.63
2019-05-02T06:58:08.220Z,31.17
2019-05-02T07:00:51.700Z,42.67
2019-05-02T07:03:10.278Z,55.33
2019-05-02T07:05:39.046Z,76.60
2019-05-02T07:08:12.040Z,75.77
2019-05-02T07:10:44.889Z,71.00
2019-05-02T07:13:10.874Z,78.03
2019-05-02T07:15:53.168Z,79.47
2019-05-02T07:18:23.143Z,76.47
2019-05-02T07:20:51.885Z,77.33
2019-05-02T07:23:20.564Z,75.60
2019-05-02T07:25:48.866Z,84.00
2019-05-02T07:28:17.168Z,84.73
2019-05-02T07:30:45.728Z,89.80
2019-05-02T07:33:14.286Z,97.03
2019-05-02T07:35:42.670Z,100.57
2019-05-02T07:38:11.251Z,101.37
2019-05-02T07:40:39.565Z,92.23
2019-05-02T07:43:08.219Z,94.97
2019-05-02T07:45:40.340Z,95.83
2019-05-02T07:48:06.557Z,98.97
2019-05-02T07:50:34.834Z,98.53
2019-05-02T07:53:04.526Z,99.73
2019-05-02T07:55:35.425Z,98.20
2019-05-02T07:58:06.835Z,97.27
2019-05-02T08:00:37.092Z,97.83
2019-05-02T08:03:05.047Z,104.90
2019-05-02T08:05:33.782Z,106.97
2019-05-02T08:08:02.403Z,101.27
2019-05-02T08:10:30.811Z,125.87
2019-05-02T08:12:59.411Z,115.13
2019-05-02T08:15:28.027Z,114.70
2019-05-02T08:17:56.837Z,110.70
2019-05-02T08:20:25.471Z,108.07
2019-05-02T08:22:54.120Z,108.73
2019-05-02T08:25:22.465Z,109.97
2019-05-02T08:27:58.561Z,107.47
2019-05-02T08:30:28.506Z,104.90
2019-05-02T08:32:57.095Z,118.00
2019-05-02T08:35:28.015Z,147.93
2019-05-02T08:37:56.378Z,148.77
2019-05-02T08:40:24.828Z,147.43
2019-05-02T08:42:53.481Z,133.90
2019-05-02T08:45:21.793Z,128.50
2019-05-02T08:47:50.443Z,130.03
2019-05-02T08:50:18.751Z,139.57
2019-05-02T08:52:48.139Z,126.23
2019-05-02T08:55:16.931Z,133.40
2019-05-02T08:57:45.594Z,126.47
2019-05-02T09:00:13.958Z,127.87
2019-05-02T09:02:42.672Z,118.40
2019-05-02T09:05:11.240Z,124.77
2019-05-02T09:07:42.680Z,120.53
2019-05-02T09:10:09.820Z,119.60
2019-05-02T09:12:42.039Z,119.50
2019-05-02T09:15:09.353Z,113.73
2019-05-02T09:17:38.940Z,114.07
2019-05-02T09:20:15.097Z,109.40
2019-05-02T09:22:37.536Z,104.53
2019-05-02T09:25:07.766Z,101.50
2019-05-02T09:27:36.084Z,98.67
2019-05-02T09:30:08.134Z,96.10
2019-05-02T09:32:37.230Z,90.43
2019-05-02T09:35:06.388Z,99.63
2019-05-02T09:37:34.832Z,96.73
2019-05-02T09:40:06.920Z,109.40
2019-05-02T09:42:33.951Z,102.90
2019-05-02T09:45:03.131Z,105.13
2019-05-02T09:47:33.052Z,95.67
2019-05-02T09:50:12.927Z,88.47
2019-05-02T09:52:44.168Z,92.07
2019-05-02T09:55:12.298Z,89.83
2019-05-02T09:57:42.616Z,81.27
2019-05-02T10:00:15.414Z,80.03
2019-05-02T10:02:43.734Z,70.87
2019-05-02T10:05:12.515Z,82.60
2019-05-02T10:07:41.926Z,88.90
2019-05-02T10:10:12.584Z,83.93
2019-05-02T10:12:42.720Z,77.83
2019-05-02T10:15:12.908Z,77.90
2019-05-02T10:17:42.961Z,81.03
2019-05-02T10:20:12.505Z,77.00
2019-05-02T10:22:41.922Z,90.23
2019-05-02T10:25:11.837Z,95.30
2019-05-02T10:27:46.061Z,103.30
2019-05-02T10:30:15.401Z,107.93
2019-05-02T10:32:42.774Z,102.63
2019-05-02T10:35:13.502Z,103.77
2019-05-02T10:37:43.020Z,109.37
2019-05-02T10:40:13.430Z,100.13
2019-05-02T10:42:41.996Z,83.67
2019-05-02T10:45:15.091Z,85.83
2019-05-02T10:47:42.264Z,88.63
2019-05-02T10:50:12.787Z,95.03
2019-05-02T10:52:42.506Z,95.20
2019-05-02T10:55:12.897Z,91.33
2019-05-02T10:57:42.066Z,89.53
2019-05-02T11:00:14.218Z,86.83
2019-05-02T11:02:44.167Z,83.93
2019-05-02T11:05:16.877Z,83.57
2019-05-02T11:07:44.458Z,81.70
2019-05-02T11:10:14.224Z,79.53
2019-05-02T11:12:46.924Z,76.87
2019-05-02T11:15:34.902Z,71.60
2019-05-02T11:18:03.598Z,87.13
2019-05-02T11:20:32.191Z,83.77
2019-05-02T11:23:02.231Z,94.97
2019-05-02T11:25:31.923Z,106.87
2019-05-02T11:28:02.819Z,101.40
2019-05-02T11:30:31.979Z,101.53
2019-05-02T11:33:02.907Z,95.13
2019-05-02T11:35:31.830Z,87.93
2019-05-02T11:38:02.399Z,85.67
2019-05-02T11:40:32.154Z,84.33
2019-05-02T11:43:04.930Z,80.27
2019-05-02T11:45:32.325Z,84.83
2019-05-02T11:48:09.600Z,81.87
2019-05-02T11:50:35.220Z,83.57
2019-05-02T11:53:02.868Z,82.50
2019-05-02T11:55:31.930Z,79.10
2019-05-02T11:58:07.908Z,78.23
2019-05-02T12:00:32.360Z,77.60
2019-05-02T12:03:21.956Z,72.47
2019-05-02T12:05:52.390Z,69.30
2019-05-02T12:08:22.065Z,67.17
2019-05-02T12:10:51.914Z,64.40
2019-05-02T12:13:20.426Z,62.07
2019-05-02T12:15:51.768Z,60.90
2019-05-02T12:18:22.529Z,58.57
2019-05-02T12:20:51.790Z,56.17
2019-05-02T12:23:19.755Z,56.53
2019-05-02T12:25:48.086Z,56.00
2019-05-02T12:28:16.639Z,52.63
2019-05-02T12:30:45.223Z,51.77
2019-05-02T12:33:14.214Z,51.93
2019-05-02T12:35:43.344Z,52.13
2019-05-02T12:38:12.293Z,47.33
2019-05-02T12:40:42.221Z,47.43
2019-05-02T12:43:12.042Z,40.70
2019-05-02T12:45:42.171Z,34.27
2019-05-02T12:48:12.979Z,35.97
2019-05-02T12:50:41.925Z,34.90
2019-05-02T12:53:12.430Z,36.20
2019-05-02T12:55:42.117Z,35.73
2019-05-02T12:58:12.329Z,33.33
2019-05-02T13:00:42.849Z,34.20
2019-05-02T13:03:12.087Z,32.37
2019-05-02T13:05:42.492Z,33.80
2019-05-02T13:08:12.242Z,32.33
2019-05-02T13:10:48.358Z,30.90
2019-05-02T13:13:16.690Z,33.27
2019-05-02T13:15:45.330Z,40.50
2019-05-02T13:18:13.639Z,45.90
2019-05-02T13:20:42.733Z,42.30
2019-05-02T13:23:35.533Z,51.23
2019-05-02T13:26:02.839Z,44.73
2019-05-02T13:28:32.456Z,35.50
2019-05-02T13:31:02.549Z,36.30
2019-05-02T13:33:47.880Z,33.37
2019-05-02T13:36:37.975Z,31.90
2019-05-02T13:39:06.715Z,30.07
2019-05-02T13:41:35.283Z,29.33
2019-05-02T13:44:03.697Z,27.30
2019-05-02T13:46:32.272Z,26.97
2019-05-02T13:49:02.144Z,24.97
2019-05-02T13:51:32.130Z,25.47
2019-05-02T13:54:02.348Z,25.73
2019-05-02T13:56:45.022Z,24.13
2019-05-02T13:59:13.058Z,23.07
2019-05-02T14:01:42.362Z,23.63
2019-05-02T14:04:14.453Z,24.77
2019-05-02T14:06:42.131Z,40.33
2019-05-02T14:09:29.527Z,50.30
2019-05-02T14:12:01.820Z,48.03
2019-05-02T14:14:29.859Z,45.93
2019-05-02T14:16:58.452Z,43.80
2019-05-02T14:19:27.139Z,42.23
2019-05-02T14:21:55.439Z,38.93
2019-05-02T14:24:23.733Z,35.57
2019-05-02T14:26:52.577Z,36.73
2019-05-02T14:29:21.757Z,33.67
2019-05-02T14:31:51.983Z,33.13
2019-05-02T14:34:38.435Z,31.27
2019-05-02T14:37:06.742Z,30.37
2019-05-02T14:39:35.022Z,29.53
2019-05-02T14:42:03.359Z,28.03
2019-05-02T14:44:57.963Z,27.33
2019-05-02T14:47:02.189Z,27.13
2019-05-02T14:49:32.147Z,33.90
2019-05-02T14:52:02.843Z,33.23
2019-05-02T14:54:32.413Z,34.23
2019-05-02T14:57:08.560Z,30.13
2019-05-02T14:59:36.838Z,29.67
2019-05-02T15:02:07.761Z,29.77
2019-05-02T15:04:38.365Z,32.57
2019-05-02T15:07:06.539Z,30.77
2019-05-02T15:09:36.385Z,29.87
2019-05-02T15:12:13.800Z,30.73
2019-05-02T15:14:35.514Z,29.13
2019-05-02T15:17:04.307Z,28.67
2019-05-02T15:19:33.664Z,26.27
2019-05-02T15:22:02.394Z,25.17
2019-05-02T15:24:33.350Z,25.43
2019-05-02T15:27:03.658Z,25.20
2019-05-02T15:29:32.548Z,25.10
2019-05-02T15:32:07.130Z,23.23
2019-05-02T15:34:42.318Z,24.43
2019-05-02T15:37:04.993Z,23.27
2019-05-02T15:42:03.317Z,22.77
2019-05-02T15:44:31.827Z,23.90
2019-05-02T15:47:05.160Z,24.43
2019-05-02T15:49:36.674Z,36.37
2019-05-02T15:52:03.150Z,54.70
2019-05-02T15:54:32.225Z,60.57
2019-05-02T15:57:05.445Z,103.93
2019-05-02T15:59:42.067Z,99.70
2019-05-02T16:02:06.409Z,112.40
2019-05-02T16:04:36.639Z,120.97
2019-05-02T16:07:08.367Z,144.67
2019-05-02T16:09:35.499Z,163.57
2019-05-02T16:12:04.524Z,154.50
2019-05-02T16:14:36.151Z,139.67
2019-05-02T16:17:08.090Z,133.93
2019-05-02T16:19:42.615Z,132.97
2019-05-02T16:22:18.666Z,130.27
2019-05-02T16:24:50.921Z,156.03
2019-05-02T16:27:22.025Z,159.03
2019-05-02T16:29:48.139Z,158.43
2019-05-02T16:32:21.982Z,167.20
2019-05-02T16:34:54.719Z,160.77
2019-05-02T16:37:22.859Z,160.73
2019-05-02T16:39:51.717Z,154.47
2019-05-02T16:42:20.066Z,183.13
2019-05-02T16:44:48.739Z,178.27
2019-05-02T16:47:17.038Z,173.73
2019-05-02T16:49:47.888Z,156.10
2019-05-02T16:52:16.171Z,162.73
2019-05-02T16:54:45.015Z,155.17
2019-05-02T16:57:17.332Z,153.23
2019-05-02T16:59:43.360Z,147.60
2019-05-02T17:02:12.239Z,161.20
2019-05-02T17:04:42.823Z,204.13
2019-05-02T17:07:12.851Z,216.90
2019-05-02T17:09:45.915Z,224.60
2019-05-02T17:12:15.404Z,235.07
2019-05-02T17:14:53.456Z,259.00
2019-05-02T17:17:15.774Z,241.47
2019-05-02T17:19:44.572Z,236.90
2019-05-02T17:22:16.767Z,268.67
2019-05-02T17:24:42.987Z,262.90
2019-05-02T17:27:14.733Z,260.47
2019-05-02T17:29:43.271Z,255.60
2019-05-02T17:32:13.946Z,259.07
2019-05-02T17:34:42.354Z,244.73
2019-05-02T17:37:12.151Z,248.33
2019-05-02T17:39:42.751Z,235.07
2019-05-02T17:42:12.461Z,231.90
2019-05-02T17:44:41.638Z,237.67
2019-05-02T17:47:10.960Z,218.67
2019-05-02T17:49:39.543Z,221.43
2019-05-02T17:52:19.098Z,210.27
2019-05-02T17:54:46.026Z,137.83
2019-05-02T17:57:14.615Z,68.10
2019-05-02T17:59:43.303Z,50.77
2019-05-02T18:02:15.795Z,59.73
2019-05-02T18:04:46.702Z,64.63
2019-05-02T18:07:12.254Z,72.10
2019-05-02T18:09:41.867Z,68.27
2019-05-02T18:12:12.677Z,66.30
2019-05-02T18:14:42.179Z,63.97
2019-05-02T18:17:12.619Z,63.83
2019-05-02T18:19:42.567Z,62.07
2019-05-02T18:22:23.237Z,62.30
2019-05-02T18:24:44.804Z,59.90
2019-05-02T18:27:12.919Z,60.23
2019-05-02T18:29:45.282Z,63.73
2019-05-02T18:32:12.820Z,61.90
2019-05-02T18:34:41.957Z,65.03
2019-05-02T18:37:10.754Z,66.77
2019-05-02T18:39:45.479Z,66.13
2019-05-02T18:42:11.804Z,68.63
2019-05-02T18:44:42.049Z,96.07
2019-05-02T18:47:12.628Z,72.93
2019-05-02T18:49:41.981Z,82.33
2019-05-02T18:52:11.723Z,86.57
2019-05-02T18:54:45.702Z,86.57
2019-05-02T18:57:11.915Z,85.43
2019-05-02T18:59:42.575Z,82.43
2019-05-02T19:02:11.713Z,80.53
2019-05-02T19:04:42.251Z,79.97
2019-05-02T19:07:14.289Z,149.80
2019-05-02T19:09:50.814Z,182.93
2019-05-02T19:12:19.349Z,158.90
2019-05-02T19:14:42.023Z,163.30
2019-05-02T19:17:12.209Z,159.10
2019-05-02T19:19:41.861Z,150.80
2019-05-02T19:22:13.245Z,145.33
2019-05-02T19:24:41.946Z,147.00
2019-05-02T19:27:12.863Z,144.13
2019-05-02T19:29:42.464Z,138.43
2019-05-02T19:32:12.255Z,141.83
2019-05-02T19:34:41.800Z,135.40
2019-05-02T19:37:12.128Z,147.10
2019-05-02T19:39:44.679Z,141.37
2019-05-02T19:42:12.304Z,130.17
2019-05-02T19:44:42.072Z,130.83
2019-05-02T19:47:15.766Z,132.77
2019-05-02T19:49:42.490Z,133.10
2019-05-02T19:52:12.857Z,139.13
2019-05-02T19:54:43.485Z,157.50
2019-05-02T19:57:12.005Z,153.43
2019-05-02T19:59:40.389Z,148.20
2019-05-02T20:02:09.237Z,137.63
2019-05-02T20:04:42.599Z,141.10
2019-05-02T20:07:08.814Z,135.27
2019-05-02T20:09:38.064Z,135.37
2019-05-02T20:12:09.662Z,133.93
2019-05-02T20:14:38.252Z,166.83
2019-05-02T20:17:07.724Z,147.33
2019-05-02T20:19:38.041Z,136.90
2019-05-02T20:22:16.388Z,139.50
2019-05-02T20:24:55.561Z,164.60
2019-05-02T20:27:22.727Z,227.73
2019-05-02T20:29:52.134Z,191.63
2019-05-02T20:32:22.119Z,173.77
2019-05-02T20:34:50.930Z,166.73
2019-05-02T20:37:19.317Z,177.50
2019-05-02T20:39:48.124Z,185.47
2019-05-02T20:42:16.450Z,187.17
2019-05-02T20:44:45.292Z,207.67
2019-05-02T20:47:14.182Z,198.33
2019-05-02T20:49:42.534Z,229.40
2019-05-02T20:52:11.898Z,268.23
2019-05-02T20:54:40.514Z,272.40
2019-05-02T20:57:09.129Z,235.07
2019-05-02T20:59:38.021Z,251.57
2019-05-02T21:02:06.660Z,250.47
2019-05-02T21:04:35.715Z,251.00
2019-05-02T21:07:14.570Z,262.73
2019-05-02T21:10:01.850Z,284.73
2019-05-02T21:12:30.007Z,289.30
2019-05-02T21:14:58.396Z,267.23
2019-05-02T21:17:27.196Z,270.63
2019-05-02T21:19:55.569Z,266.93
2019-05-02T21:22:25.124Z,270.27
2019-05-02T21:24:53.516Z,261.53
2019-05-02T21:27:21.933Z,255.00
2019-05-02T21:29:52.258Z,260.93
2019-05-02T21:32:22.894Z,253.57
2019-05-02T21:34:52.041Z,256.60
2019-05-02T21:37:22.607Z,247.83
2019-05-02T21:39:52.050Z,239.73
2019-05-02T21:42:22.420Z,245.10
2019-05-02T21:44:51.817Z,238.57
2019-05-02T21:47:22.308Z,221.53
2019-05-02T21:49:52.604Z,229.13
2019-05-02T21:52:22.736Z,217.70
2019-05-02T21:54:52.735Z,207.37
2019-05-02T21:57:22.686Z,185.73
2019-05-02T21:59:52.717Z,190.90
2019-05-02T22:02:22.571Z,174.53
2019-05-02T22:04:52.899Z,186.03
2019-05-02T22:07:21.796Z,208.70
2019-05-02T22:09:52.344Z,217.10
2019-05-02T22:12:22.411Z,236.17
2019-05-02T22:14:52.833Z,233.37
2019-05-02T22:17:21.634Z,230.80
2019-05-02T22:19:52.303Z,219.33
2019-05-02T22:22:22.694Z,207.50
2019-05-02T22:24:52.826Z,184.73
2019-05-02T22:27:21.762Z,160.50
2019-05-02T22:29:52.021Z,171.90
2019-05-02T22:32:22.536Z,154.20
2019-05-02T22:34:53.447Z,162.83
2019-05-02T22:37:22.496Z,135.73
2019-05-02T22:39:52.905Z,149.17
2019-05-02T22:42:21.937Z,146.13
2019-05-02T22:44:50.426Z,156.30
2019-05-02T22:47:18.839Z,159.73
2019-05-02T22:49:47.412Z,170.33
2019-05-02T22:52:15.744Z,161.37
2019-05-02T22:54:44.347Z,155.63
2019-05-02T22:57:14.230Z,171.13
2019-05-02T22:59:43.116Z,155.47
2019-05-02T23:02:12.801Z,159.67
2019-05-02T23:04:41.812Z,160.83
2019-05-02T23:07:12.534Z,162.07
2019-05-02T23:09:43.386Z,157.00
2019-05-02T23:12:10.746Z,151.77
2019-05-02T23:14:39.369Z,146.80
2019-05-02T23:17:08.052Z,151.07
2019-05-02T23:19:36.741Z,145.87
2019-05-02T23:22:05.432Z,141.40
2019-05-02T23:24:42.567Z,142.37
2019-05-02T23:27:22.427Z,148.17
2019-05-02T23:29:52.044Z,137.70
2019-05-02T23:32:23.658Z,138.87
2019-05-02T23:34:52.313Z,136.13
2019-05-02T23:37:20.812Z,138.60
2019-05-02T23:39:49.472Z,136.97
2019-05-02T23:42:18.168Z,142.03
2019-05-02T23:44:47.002Z,140.07
2019-05-02T23:47:15.771Z,136.23
2019-05-02T23:49:44.170Z,156.60
2019-05-02T23:52:12.511Z,166.30
2019-05-02T23:54:50.012Z,158.53
2019-05-02T23:57:12.186Z,153.00
2019-05-02T23:59:42.406Z,144.03
